TimeCDT,TemperatureF,Dew PointF,Humidity,Sea Level PressureIn,VisibilityMPH,Wind Direction,Wind SpeedMPH,Gust SpeedMPH,PrecipitationIn,Events,Conditions,WindDirDegrees,DateUTC
12:53 AM,48.0,37.0,66,30.22,10.0,North,5.8,-,N/A,,Clear,10,2012-10-29 05:53:00
1:53 AM,48.0,36.0,63,30.22,10.0,North,5.8,-,N/A,,Clear,10,2012-10-29 06:53:00
2:53 AM,46.9,36.0,66,30.23,10.0,North,6.9,-,N/A,,Clear,10,2012-10-29 07:53:00
3:53 AM,46.9,36.0,66,30.24,10.0,NNE,5.8,-,N/A,,Clear,20,2012-10-29 08:53:00
4:53 AM,44.1,36.0,73,30.25,10.0,North,5.8,-,N/A,,Clear,10,2012-10-29 09:53:00
6:53 AM,39.9,36.0,86,30.26,10.0,NNW,4.6,-,N/A,,Clear,340,2012-10-29 11:53:00
7:53 AM,43.0,37.0,80,30.28,10.0,Calm,Calm,-,N/A,,Clear,0,2012-10-29 12:53:00
8:53 AM,50.0,39.0,66,30.30,10.0,Calm,Calm,-,N/A,,Clear,0,2012-10-29 13:53:00
9:53 AM,57.0,35.1,44,30.30,10.0,NNE,10.4,-,N/A,,Clear,30,2012-10-29 14:53:00
10:53 AM,59.0,34.0,39,30.30,10.0,North,8.1,-,N/A,,Clear,10,2012-10-29 15:53:00
11:53 AM,62.1,34.0,35,30.29,10.0,North,8.1,-,N/A,,Clear,10,2012-10-29 16:53:00
12:53 PM,64.9,34.0,32,30.25,10.0,Variable,6.9,17.3,N/A,,Clear,0,2012-10-29 17:53:00
1:53 PM,66.0,34.0,30,30.22,10.0,NNW,11.5,-,N/A,,Clear,340,2012-10-29 18:53:00
2:53 PM,68.0,33.8,28,30.17,10.0,North,16.1,23.0,N/A,,Clear,10,2012-10-29 19:53:00
3:53 PM,69.1,34.0,27,30.17,10.0,North,11.5,-,N/A,,Clear,360,2012-10-29 20:53:00
4:53 PM,68.0,34.0,28,30.16,10.0,North,9.2,17.3,N/A,,Clear,10,2012-10-29 21:53:00
5:53 PM,64.9,34.0,32,30.16,10.0,North,10.4,-,N/A,,Clear,10,2012-10-29 22:53:00
6:53 PM,55.9,37.0,49,30.17,10.0,NNE,6.9,-,N/A,,Clear,30,2012-10-29 23:53:00
7:53 PM,50.0,39.9,68,30.18,10.0,Calm,Calm,-,N/A,,Clear,0,2012-10-30 00:53:00
8:53 PM,48.9,41.0,74,30.19,10.0,Calm,Calm,-,N/A,,Clear,0,2012-10-30 01:53:00
9:53 PM,46.0,41.0,83,30.19,10.0,Calm,Calm,-,N/A,,Clear,0,2012-10-30 02:53:00
10:53 PM,46.0,42.1,86,30.19,10.0,Calm,Calm,-,N/A,,Clear,0,2012-10-30 03:53:00
11:53 PM,44.1,41.0,89,30.18,10.0,Calm,Calm,-,N/A,,Clear,0,2012-10-30 04:53:00